Time;durP1;ratioP1;P1;durP2;ratioP2;P2;SDS_P1;SDS_P2;PMS_P1;PMS_P2;Temp;Humidity;BMP_temperature;BMP_pressure;BME280_temperature;BME280_humidity;BME280_pressure;Samples;Min_cycle;Max_cycle;Signal;HPM_P1;HPM_P2
2023/11/17 00:01:27;;;;;;;24.07;13.53;;;;;;;;;;5006362;28;20824;-69
2023/11/17 00:03:53;;;;;;;24.57;14.17;;;;;;;;;;5013001;28;20222;-69
2023/11/17 00:06:19;;;;;;;23.10;13.67;;;;;;;;;;5016127;28;20193;-69
2023/11/17 00:08:44;;;;;;;21.27;13.37;;;;;;;;;;5016860;28;20186;-69
2023/11/17 00:11:11;;;;;;;23.73;14.00;;;;;;;;;;5015922;28;20230;-69
2023/11/17 00:13:38;;;;;;;20.73;12.00;;;;;;;;;;5024139;28;20205;-69
2023/11/17 00:16:06;;;;;;;22.60;13.17;;;;;;;;;;5015729;28;20274;-69
2023/11/17 00:18:33;;;;;;;23.20;13.20;;;;;;;;;;5030425;28;20209;-69
2023/11/17 00:20:59;;;;;;;23.67;13.17;;;;;;;;;;5028459;28;20171;-69
2023/11/17 00:23:27;;;;;;;22.03;14.20;;;;;;;;;;5035454;28;20196;-69
2023/11/17 00:25:55;;;;;;;26.20;14.17;;;;;;;;;;5036135;28;20201;-69
2023/11/17 00:28:23;;;;;;;19.77;12.37;;;;;;;;;;5027339;28;20591;-69
2023/11/17 00:30:49;;;;;;;23.33;12.40;;;;;;;;;;5020102;28;20569;-69
2023/11/17 00:33:15;;;;;;;23.47;13.07;;;;;;;;;;5024809;28;20263;-69
2023/11/17 00:35:40;;;;;;;23.20;13.43;;;;;;;;;;5022929;28;20182;-69
2023/11/17 00:38:06;;;;;;;28.60;15.10;;;;;;;;;;5022975;28;20243;-69
2023/11/17 00:40:33;;;;;;;32.50;14.80;;;;;;;;;;5024618;28;20262;-69
2023/11/17 00:43:00;;;;;;;30.57;14.43;;;;;;;;;;5019893;28;20739;-69
2023/11/17 00:45:26;;;;;;;22.17;14.00;;;;;;;;;;5019558;28;20186;-69
2023/11/17 00:47:52;;;;;;;31.23;14.93;;;;;;;;;;5025032;28;20297;-69
2023/11/17 00:50:17;;;;;;;25.87;13.50;;;;;;;;;;5013439;28;20190;-68
2023/11/17 00:52:43;;;;;;;30.23;14.17;;;;;;;;;;5025526;28;20190;-68
2023/11/17 00:55:12;;;;;;;33.03;17.77;;;;;;;;;;5030133;28;20191;-68
2023/11/17 00:57:38;;;;;;;22.80;13.40;;;;;;;;;;5017349;28;20197;-68
2023/11/17 01:00:04;;;;;;;20.43;11.53;;;;;;;;;;5028904;28;20653;-69
2023/11/17 01:02:30;;;;;;;20.23;12.03;;;;;;;;;;5016618;28;20190;-68
2023/11/17 01:04:56;;;;;;;22.80;12.60;;;;;;;;;;5021934;28;20200;-68
2023/11/17 01:07:21;;;;;;;29.70;12.60;;;;;;;;;;5019865;28;20206;-68
2023/11/17 01:09:47;;;;;;;21.60;12.53;;;;;;;;;;5020822;28;20195;-68
2023/11/17 01:12:13;;;;;;;21.73;11.93;;;;;;;;;;5013648;28;20222;-68
2023/11/17 01:14:38;;;;;;;18.50;10.97;;;;;;;;;;5038368;28;20191;-68
2023/11/17 01:17:04;;;;;;;20.37;11.33;;;;;;;;;;5030641;28;20188;-68
2023/11/17 01:19:29;;;;;;;18.63;11.83;;;;;;;;;;5026975;28;20681;-68
2023/11/17 01:21:55;;;;;;;18.63;12.20;;;;;;;;;;5039822;28;20286;-68
2023/11/17 01:24:21;;;;;;;18.00;11.90;;;;;;;;;;5030403;28;20197;-68
2023/11/17 01:26:47;;;;;;;18.80;11.27;;;;;;;;;;5021029;28;20185;-68
2023/11/17 01:29:12;;;;;;;18.90;12.23;;;;;;;;;;5050614;28;20549;-69
2023/11/17 01:31:37;;;;;;;19.63;11.73;;;;;;;;;;5028839;28;20214;-68
2023/11/17 01:34:04;;;;;;;19.17;11.67;;;;;;;;;;5029731;28;20182;-68
2023/11/17 01:36:30;;;;;;;19.17;11.67;;;;;;;;;;5018291;28;20565;-68
2023/11/17 01:38:56;;;;;;;20.30;12.17;;;;;;;;;;5021542;28;20265;-68
2023/11/17 01:41:23;;;;;;;18.73;11.80;;;;;;;;;;5032662;28;20192;-68
2023/11/17 01:43:50;;;;;;;18.17;12.07;;;;;;;;;;5029723;28;20264;-68
2023/11/17 01:46:16;;;;;;;20.80;11.73;;;;;;;;;;5037019;28;20186;-68
2023/11/17 01:48:43;;;;;;;19.27;11.13;;;;;;;;;;5041960;28;20225;-68
2023/11/17 01:51:08;;;;;;;19.37;12.40;;;;;;;;;;5043739;28;20225;-68
2023/11/17 01:53:34;;;;;;;22.47;11.73;;;;;;;;;;5028829;28;20186;-68
2023/11/17 01:55:59;;;;;;;22.17;12.23;;;;;;;;;;5030061;28;20186;-68
2023/11/17 01:58:26;;;;;;;18.73;12.07;;;;;;;;;;5041229;28;20186;-68
2023/11/17 02:00:54;;;;;;;18.03;11.13;;;;;;;;;;5030079;28;20657;-68
2023/11/17 02:03:20;;;;;;;20.17;12.13;;;;;;;;;;5028383;28;20205;-68
2023/11/17 02:05:51;;;;;;;18.30;11.80;;;;;;;;;;5030166;28;20732;-68
2023/11/17 02:08:39;;;;;;;22.20;12.33;;;;;;;;;;5025205;28;20252;-68
2023/11/17 02:11:24;;;;;;;22.70;12.43;;;;;;;;;;5026940;28;20225;-68
2023/11/17 02:13:58;;;;;;;21.90;12.57;;;;;;;;;;5015304;28;20711;-68
2023/11/17 02:16:24;;;;;;;22.77;12.93;;;;;;;;;;5015993;28;20202;-68
2023/11/17 02:18:54;;;;;;;20.50;12.70;;;;;;;;;;5022590;28;20267;-68
2023/11/17 02:21:29;;;;;;;19.90;12.27;;;;;;;;;;5027975;28;20277;-69
2023/11/17 02:23:56;;;;;;;21.57;12.00;;;;;;;;;;5026425;28;20554;-68
2023/11/17 02:26:31;;;;;;;21.53;12.47;;;;;;;;;;5031914;28;20254;-68
2023/11/17 02:29:15;;;;;;;20.90;12.37;;;;;;;;;;5038786;28;20324;-68
2023/11/17 02:31:40;;;;;;;21.47;11.87;;;;;;;;;;5020736;28;20689;-68
2023/11/17 02:34:08;;;;;;;21.03;12.10;;;;;;;;;;5024294;28;20273;-68
2023/11/17 02:36:35;;;;;;;18.43;12.27;;;;;;;;;;5032275;28;20650;-68
2023/11/17 02:39:24;;;;;;;16.67;10.90;;;;;;;;;;5040048;28;20264;-68
2023/11/17 02:41:57;;;;;;;18.37;11.30;;;;;;;;;;5027347;28;20186;-68
2023/11/17 02:44:33;;;;;;;20.17;11.20;;;;;;;;;;5040175;28;20200;-68
2023/11/17 02:47:03;;;;;;;17.93;11.57;;;;;;;;;;5027847;28;20185;-68
2023/11/17 02:49:34;;;;;;;20.30;11.83;;;;;;;;;;5040358;28;20220;-68
2023/11/17 02:52:09;;;;;;;19.97;11.53;;;;;;;;;;5026788;28;20543;-68
2023/11/17 02:54:36;;;;;;;17.00;11.63;;;;;;;;;;5020465;28;20197;-68
2023/11/17 02:57:03;;;;;;;20.20;12.13;;;;;;;;;;5029496;28;20677;-68
2023/11/17 02:59:34;;;;;;;18.20;11.60;;;;;;;;;;5030939;28;20187;-68
2023/11/17 03:02:02;;;;;;;18.10;11.67;;;;;;;;;;5022660;28;20540;-68
2023/11/17 03:04:27;;;;;;;18.47;11.30;;;;;;;;;;5025801;28;20656;-68
2023/11/17 03:06:52;;;;;;;17.60;11.60;;;;;;;;;;5041245;28;20252;-68
2023/11/17 03:09:22;;;;;;;15.63;11.63;;;;;;;;;;5045133;28;20550;-68
2023/11/17 03:11:51;;;;;;;21.33;12.33;;;;;;;;;;5027556;28;20222;-68
2023/11/17 03:14:17;;;;;;;17.10;11.30;;;;;;;;;;5036845;28;20189;-68
2023/11/17 03:16:43;;;;;;;18.83;11.70;;;;;;;;;;5037169;28;20268;-68
2023/11/17 03:19:11;;;;;;;16.83;11.13;;;;;;;;;;5047368;28;20221;-68
2023/11/17 03:21:41;;;;;;;21.30;12.53;;;;;;;;;;5033686;28;20490;-68
2023/11/17 03:24:27;;;;;;;19.40;12.30;;;;;;;;;;5031760;28;20547;-68
2023/11/17 03:26:55;;;;;;;17.27;11.03;;;;;;;;;;5027886;28;20198;-68
2023/11/17 03:29:24;;;;;;;17.47;11.83;;;;;;;;;;5018025;28;20508;-68
2023/11/17 03:31:55;;;;;;;18.07;11.63;;;;;;;;;;5013722;28;20218;-68
2023/11/17 03:34:28;;;;;;;20.00;11.83;;;;;;;;;;5025658;28;20221;-68
2023/11/17 03:37:00;;;;;;;22.30;11.47;;;;;;;;;;5029796;28;20186;-68
2023/11/17 03:39:31;;;;;;;18.80;11.93;;;;;;;;;;5042092;28;20183;-68
2023/11/17 03:41:57;;;;;;;21.37;11.90;;;;;;;;;;5007912;28;20193;-67
2023/11/17 03:44:27;;;;;;;20.00;12.83;;;;;;;;;;5018436;28;20201;-68
2023/11/17 03:46:54;;;;;;;20.20;11.93;;;;;;;;;;5021599;28;20201;-68
2023/11/17 03:49:20;;;;;;;19.17;11.80;;;;;;;;;;5023336;28;20215;-68
2023/11/17 03:51:46;;;;;;;20.30;12.57;;;;;;;;;;5018567;28;20242;-68
2023/11/17 03:54:12;;;;;;;17.97;11.90;;;;;;;;;;5023584;28;20290;-68
2023/11/17 03:56:38;;;;;;;20.63;11.83;;;;;;;;;;5022317;28;20620;-68
2023/11/17 03:59:04;;;;;;;19.53;11.87;;;;;;;;;;5043614;28;20220;-68
2023/11/17 04:01:31;;;;;;;19.17;12.53;;;;;;;;;;5016872;28;20476;-68
2023/11/17 04:03:57;;;;;;;19.90;12.27;;;;;;;;;;5033111;28;20267;-67
2023/11/17 04:06:22;;;;;;;18.17;11.80;;;;;;;;;;5032111;28;20195;-68
2023/11/17 04:08:48;;;;;;;20.57;12.37;;;;;;;;;;5034599;28;20720;-68
2023/11/17 04:11:15;;;;;;;23.70;12.77;;;;;;;;;;5025928;28;20260;-67
2023/11/17 04:13:41;;;;;;;22.07;12.47;;;;;;;;;;5040529;28;20239;-67
2023/11/17 04:16:08;;;;;;;21.17;12.90;;;;;;;;;;5035876;28;20379;-67
2023/11/17 04:18:34;;;;;;;19.73;12.50;;;;;;;;;;5031824;28;20198;-67
2023/11/17 04:20:59;;;;;;;21.00;13.20;;;;;;;;;;5025904;28;20197;-68
2023/11/17 04:23:24;;;;;;;20.70;13.40;;;;;;;;;;5029733;28;20612;-68
2023/11/17 04:25:50;;;;;;;23.20;14.17;;;;;;;;;;5035783;28;20301;-68
2023/11/17 04:28:16;;;;;;;28.60;13.53;;;;;;;;;;5017685;28;20202;-68
2023/11/17 04:30:43;;;;;;;22.80;13.73;;;;;;;;;;5014603;28;20222;-68
2023/11/17 04:33:09;;;;;;;23.33;13.00;;;;;;;;;;5019220;28;20269;-68
2023/11/17 04:35:34;;;;;;;24.63;12.93;;;;;;;;;;5018808;28;20229;-68
2023/11/17 04:38:00;;;;;;;20.07;12.50;;;;;;;;;;5034157;28;20190;-68
2023/11/17 04:40:25;;;;;;;18.67;11.63;;;;;;;;;;5022029;28;20657;-67
2023/11/17 04:42:50;;;;;;;19.07;12.63;;;;;;;;;;5028654;28;20399;-67
2023/11/17 04:45:16;;;;;;;24.67;12.33;;;;;;;;;;5028944;28;20648;-67
2023/11/17 04:47:41;;;;;;;23.03;13.20;;;;;;;;;;5014147;28;20190;-67
2023/11/17 04:50:10;;;;;;;26.67;14.10;;;;;;;;;;5025133;28;20197;-67
2023/11/17 04:52:35;;;;;;;27.67;13.43;;;;;;;;;;5035080;28;20512;-67
2023/11/17 04:55:03;;;;;;;23.07;13.20;;;;;;;;;;5017947;28;20187;-67
2023/11/17 04:57:29;;;;;;;23.03;13.10;;;;;;;;;;5025575;28;20189;-67
2023/11/17 04:59:54;;;;;;;23.10;13.50;;;;;;;;;;5032688;28;20191;-67
2023/11/17 05:02:20;;;;;;;23.00;12.47;;;;;;;;;;5038843;28;20625;-67
2023/11/17 05:04:45;;;;;;;20.13;12.70;;;;;;;;;;5028163;28;20194;-67
2023/11/17 05:07:11;;;;;;;21.47;13.07;;;;;;;;;;5029167;28;20197;-67
2023/11/17 05:09:36;;;;;;;19.90;13.03;;;;;;;;;;5027910;28;20198;-67
2023/11/17 05:12:02;;;;;;;22.43;13.13;;;;;;;;;;5030234;28;20688;-67
2023/11/17 05:14:27;;;;;;;21.47;12.67;;;;;;;;;;5017834;28;20201;-67
2023/11/17 05:16:59;;;;;;;21.07;13.30;;;;;;;;;;5047201;28;20660;-67
2023/11/17 05:19:24;;;;;;;20.03;12.63;;;;;;;;;;5048616;28;20217;-67
2023/11/17 05:21:50;;;;;;;24.50;12.27;;;;;;;;;;5030029;28;20186;-67
2023/11/17 05:24:15;;;;;;;21.20;12.83;;;;;;;;;;5016798;28;20270;-68
2023/11/17 05:26:40;;;;;;;18.50;12.30;;;;;;;;;;5010887;28;20688;-67
2023/11/17 05:29:06;;;;;;;24.07;13.47;;;;;;;;;;5010881;28;20185;-68
2023/11/17 05:31:31;;;;;;;19.80;12.57;;;;;;;;;;5010251;28;20203;-68
2023/11/17 05:33:57;;;;;;;19.30;13.07;;;;;;;;;;5012824;28;20191;-68
2023/11/17 05:36:23;;;;;;;20.17;12.80;;;;;;;;;;5015410;28;20503;-67
2023/11/17 05:38:48;;;;;;;22.87;13.83;;;;;;;;;;5010524;28;20522;-68
2023/11/17 05:41:14;;;;;;;26.03;12.87;;;;;;;;;;5012004;28;20520;-68
2023/11/17 05:43:44;;;;;;;22.20;13.73;;;;;;;;;;5014205;28;20655;-68
2023/11/17 05:46:10;;;;;;;19.80;12.53;;;;;;;;;;5014914;28;20255;-68
2023/11/17 05:48:36;;;;;;;22.57;14.30;;;;;;;;;;5032548;28;20194;-68
2023/11/17 05:51:05;;;;;;;23.20;14.13;;;;;;;;;;5027175;28;20206;-68
2023/11/17 05:53:31;;;;;;;25.90;14.07;;;;;;;;;;5019456;28;20194;-68
2023/11/17 05:55:56;;;;;;;24.80;14.27;;;;;;;;;;5026749;28;20186;-68
2023/11/17 05:58:22;;;;;;;19.90;12.73;;;;;;;;;;5012715;28;20199;-68
2023/11/17 06:00:48;;;;;;;21.40;13.53;;;;;;;;;;5015192;28;20191;-68
2023/11/17 06:03:13;;;;;;;26.93;13.27;;;;;;;;;;5020256;28;20190;-68
2023/11/17 06:05:39;;;;;;;23.43;13.57;;;;;;;;;;5016239;28;20331;-68
2023/11/17 06:08:04;;;;;;;21.57;13.70;;;;;;;;;;5028236;28;20180;-68
2023/11/17 06:10:30;;;;;;;22.10;13.40;;;;;;;;;;5017311;28;20253;-68
2023/11/17 06:12:56;;;;;;;20.93;13.70;;;;;;;;;;5021197;28;20271;-68
2023/11/17 06:15:26;;;;;;;24.87;13.00;;;;;;;;;;5017308;28;20194;-68
2023/11/17 06:17:53;;;;;;;24.10;12.37;;;;;;;;;;5027768;28;20205;-68
2023/11/17 06:20:19;;;;;;;21.43;12.17;;;;;;;;;;5021801;28;20281;-68
2023/11/17 06:22:44;;;;;;;23.17;12.80;;;;;;;;;;5025408;28;20260;-68
2023/11/17 06:25:10;;;;;;;18.97;12.70;;;;;;;;;;5027169;28;20198;-68
2023/11/17 06:27:37;;;;;;;24.17;11.87;;;;;;;;;;5008872;28;20198;-68
2023/11/17 06:30:06;;;;;;;21.43;13.07;;;;;;;;;;5045194;28;20182;-68
2023/11/17 06:32:32;;;;;;;19.97;12.77;;;;;;;;;;5019283;28;20202;-68
2023/11/17 06:34:57;;;;;;;21.07;12.93;;;;;;;;;;5019008;28;20299;-68
2023/11/17 06:37:23;;;;;;;26.00;13.30;;;;;;;;;;5017412;28;20675;-68
2023/11/17 06:39:48;;;;;;;20.17;12.77;;;;;;;;;;5036763;28;20255;-67
2023/11/17 06:42:13;;;;;;;21.40;12.73;;;;;;;;;;5016657;28;20175;-67
2023/11/17 06:44:40;;;;;;;24.23;14.00;;;;;;;;;;5020256;28;20676;-67
2023/11/17 06:47:06;;;;;;;23.60;13.30;;;;;;;;;;5022343;28;20676;-67
2023/11/17 06:49:32;;;;;;;21.53;13.07;;;;;;;;;;5020013;28;20426;-67
2023/11/17 06:51:58;;;;;;;21.67;12.83;;;;;;;;;;5026012;28;20213;-66
2023/11/17 06:54:24;;;;;;;26.30;13.93;;;;;;;;;;5022517;28;20196;-67
2023/11/17 06:56:51;;;;;;;26.90;13.93;;;;;;;;;;5028286;28;20199;-67
2023/11/17 06:59:19;;;;;;;25.20;13.93;;;;;;;;;;5027312;28;20608;-67
2023/11/17 07:01:46;;;;;;;25.80;13.90;;;;;;;;;;5026983;28;20179;-67
2023/11/17 07:04:12;;;;;;;22.67;12.83;;;;;;;;;;5015212;28;20198;-67
2023/11/17 07:06:38;;;;;;;21.03;12.87;;;;;;;;;;5018399;28;20202;-66
2023/11/17 07:09:16;;;;;;;21.90;12.47;;;;;;;;;;5026483;28;20209;-67
2023/11/17 07:11:44;;;;;;;24.03;13.20;;;;;;;;;;5010768;28;20626;-66
2023/11/17 07:14:11;;;;;;;21.90;12.70;;;;;;;;;;5021913;28;20190;-67
2023/11/17 07:16:37;;;;;;;23.93;12.97;;;;;;;;;;5026980;28;20194;-67
2023/11/17 07:19:08;;;;;;;19.80;12.43;;;;;;;;;;5017500;28;20210;-66
2023/11/17 07:21:36;;;;;;;21.37;13.20;;;;;;;;;;5028799;28;20174;-67
2023/11/17 07:24:05;;;;;;;25.20;13.63;;;;;;;;;;5032916;28;20555;-67
2023/11/17 07:26:34;;;;;;;25.33;14.30;;;;;;;;;;5026865;28;20192;-67
2023/11/17 07:29:02;;;;;;;23.10;13.67;;;;;;;;;;5038121;28;20190;-66
2023/11/17 07:31:29;;;;;;;27.03;14.33;;;;;;;;;;5032429;28;20535;-66
2023/11/17 07:33:54;;;;;;;25.70;15.77;;;;;;;;;;5030402;28;20320;-67
2023/11/17 07:36:20;;;;;;;25.67;14.60;;;;;;;;;;5032337;28;20256;-67
2023/11/17 07:38:51;;;;;;;26.60;15.63;;;;;;;;;;5033706;28;20557;-66
2023/11/17 07:41:19;;;;;;;24.90;14.87;;;;;;;;;;5026696;28;20182;-67
2023/11/17 07:43:45;;;;;;;28.77;16.33;;;;;;;;;;5039220;28;20189;-66
2023/11/17 07:46:11;;;;;;;24.63;15.37;;;;;;;;;;5023378;28;20197;-66
2023/11/17 07:48:37;;;;;;;28.30;16.20;;;;;;;;;;5032460;28;20188;-66
2023/11/17 07:51:03;;;;;;;21.80;14.33;;;;;;;;;;5033754;28;20210;-67
2023/11/17 07:53:29;;;;;;;26.80;15.70;;;;;;;;;;5021476;28;20204;-66
2023/11/17 07:55:55;;;;;;;27.80;16.30;;;;;;;;;;5038104;28;20186;-66
2023/11/17 07:58:20;;;;;;;27.73;16.07;;;;;;;;;;5033262;28;20195;-67
2023/11/17 08:00:50;;;;;;;27.00;16.47;;;;;;;;;;5035732;28;20320;-67
2023/11/17 08:03:16;;;;;;;29.37;15.57;;;;;;;;;;5018888;28;20249;-67
2023/11/17 08:05:43;;;;;;;33.50;17.97;;;;;;;;;;5031923;28;20272;-67
2023/11/17 08:08:08;;;;;;;31.53;17.30;;;;;;;;;;5027725;28;20273;-67
2023/11/17 08:10:34;;;;;;;30.53;18.33;;;;;;;;;;5035529;28;20308;-67
2023/11/17 08:13:00;;;;;;;27.83;17.47;;;;;;;;;;5035997;28;20291;-67
2023/11/17 08:15:28;;;;;;;41.67;19.83;;;;;;;;;;5040473;28;20668;-67
2023/11/17 08:17:54;;;;;;;37.90;20.63;;;;;;;;;;5027731;28;20494;-67
2023/11/17 08:20:21;;;;;;;51.07;24.33;;;;;;;;;;5039830;28;20289;-67
2023/11/17 08:22:46;;;;;;;48.53;26.40;;;;;;;;;;5042854;28;20190;-68
2023/11/17 08:25:12;;;;;;;50.80;25.50;;;;;;;;;;5024188;28;20209;-67
2023/11/17 08:27:37;;;;;;;48.80;27.83;;;;;;;;;;5023322;28;20559;-67
2023/11/17 08:30:07;;;;;;;54.77;31.57;;;;;;;;;;5029873;28;20182;-67
2023/11/17 08:32:36;;;;;;;59.53;32.93;;;;;;;;;;5024210;28;20214;-67
2023/11/17 08:35:01;;;;;;;50.07;29.23;;;;;;;;;;5028376;28;20610;-67
2023/11/17 08:37:28;;;;;;;52.70;29.47;;;;;;;;;;5014817;28;20214;-67
2023/11/17 08:39:53;;;;;;;50.40;29.93;;;;;;;;;;5025287;28;20281;-67
2023/11/17 08:42:19;;;;;;;50.37;29.90;;;;;;;;;;5017993;28;20266;-67
2023/11/17 08:44:44;;;;;;;46.17;26.33;;;;;;;;;;5035778;28;20205;-66
2023/11/17 08:47:11;;;;;;;49.23;28.70;;;;;;;;;;5031412;28;20186;-66
2023/11/17 08:49:36;;;;;;;50.23;28.33;;;;;;;;;;5033529;28;20198;-67
2023/11/17 08:52:05;;;;;;;50.00;28.40;;;;;;;;;;5033977;28;20570;-67
2023/11/17 08:54:30;;;;;;;43.83;27.10;;;;;;;;;;5032952;28;20198;-67
2023/11/17 08:56:58;;;;;;;44.23;27.70;;;;;;;;;;5030791;28;20198;-67
2023/11/17 08:59:24;;;;;;;46.33;26.30;;;;;;;;;;5049892;28;20197;-67
2023/11/17 09:01:50;;;;;;;47.93;26.93;;;;;;;;;;5021300;28;20221;-67
2023/11/17 09:04:16;;;;;;;42.23;27.33;;;;;;;;;;5019863;28;20275;-67
2023/11/17 09:06:41;;;;;;;50.23;29.63;;;;;;;;;;5030271;28;20317;-67
2023/11/17 09:09:10;;;;;;;44.60;27.00;;;;;;;;;;5029526;28;20776;-67
2023/11/17 09:11:36;;;;;;;43.80;27.70;;;;;;;;;;5014725;28;20234;-67
2023/11/17 09:14:02;;;;;;;52.97;30.97;;;;;;;;;;5020635;28;20202;-67
2023/11/17 09:16:28;;;;;;;54.93;30.73;;;;;;;;;;5024694;28;20190;-67
2023/11/17 09:18:53;;;;;;;50.03;30.13;;;;;;;;;;5015534;28;20226;-67
2023/11/17 09:21:19;;;;;;;50.00;31.17;;;;;;;;;;5028553;28;20198;-68
2023/11/17 09:23:44;;;;;;;50.27;29.57;;;;;;;;;;5024303;28;20277;-68
2023/11/17 09:26:10;;;;;;;44.73;27.37;;;;;;;;;;5019546;28;20800;-68
2023/11/17 09:28:35;;;;;;;47.37;27.30;;;;;;;;;;5024616;28;20190;-68
2023/11/17 09:31:01;;;;;;;45.37;27.77;;;;;;;;;;5022347;28;20213;-68
2023/11/17 09:33:27;;;;;;;47.63;28.60;;;;;;;;;;5039945;28;20303;-68
2023/11/17 09:36:00;;;;;;;43.90;27.47;;;;;;;;;;5020182;28;20222;-68
2023/11/17 09:38:26;;;;;;;42.97;26.10;;;;;;;;;;5025567;28;20196;-68
2023/11/17 09:40:52;;;;;;;46.30;27.63;;;;;;;;;;5010931;28;20602;-68
2023/11/17 09:43:18;;;;;;;48.43;28.30;;;;;;;;;;5020875;28;20608;-68
2023/11/17 09:45:45;;;;;;;45.07;27.57;;;;;;;;;;5030146;28;20266;-68
2023/11/17 09:48:12;;;;;;;49.27;27.47;;;;;;;;;;5035273;28;20744;-68
2023/11/17 09:50:40;;;;;;;45.97;27.77;;;;;;;;;;5027652;28;20190;-68
2023/11/17 09:53:06;;;;;;;43.57;26.80;;;;;;;;;;5022775;28;20218;-68
2023/11/17 09:55:33;;;;;;;43.13;24.90;;;;;;;;;;5015290;28;20193;-68
2023/11/17 09:58:03;;;;;;;47.60;27.43;;;;;;;;;;5006101;28;20225;-68
2023/11/17 10:00:29;;;;;;;51.70;27.70;;;;;;;;;;5031610;28;20504;-68
2023/11/17 10:02:58;;;;;;;45.53;26.63;;;;;;;;;;5038144;28;20240;-68
2023/11/17 10:05:26;;;;;;;43.87;25.67;;;;;;;;;;5015014;28;20677;-68
2023/11/17 10:07:54;;;;;;;44.63;25.97;;;;;;;;;;5020035;28;20193;-69
2023/11/17 10:10:26;;;;;;;44.80;26.23;;;;;;;;;;5019156;28;20250;-68
2023/11/17 10:12:54;;;;;;;39.10;25.63;;;;;;;;;;5016582;28;20219;-68
2023/11/17 10:15:24;;;;;;;39.73;24.77;;;;;;;;;;5034047;28;20649;-68
2023/11/17 10:17:55;;;;;;;42.13;23.90;;;;;;;;;;5028339;28;20579;-68
2023/11/17 10:20:21;;;;;;;38.60;25.13;;;;;;;;;;5033078;28;20208;-68
2023/11/17 10:22:50;;;;;;;38.43;25.23;;;;;;;;;;5020621;28;20185;-68
2023/11/17 10:25:24;;;;;;;35.57;23.10;;;;;;;;;;5028238;28;20218;-68
2023/11/17 10:27:51;;;;;;;31.27;21.63;;;;;;;;;;5028011;28;20182;-68
2023/11/17 10:30:17;;;;;;;33.60;21.70;;;;;;;;;;5025314;28;20220;-68
2023/11/17 10:32:50;;;;;;;29.93;21.20;;;;;;;;;;5026551;28;20230;-68
2023/11/17 10:35:25;;;;;;;31.33;21.43;;;;;;;;;;5045737;28;20189;-67
2023/11/17 10:37:58;;;;;;;31.20;22.17;;;;;;;;;;5027716;28;20193;-67
2023/11/17 10:40:35;;;;;;;30.42;20.50;;;;;;;;;;5028549;28;20186;-67
2023/11/17 10:43:00;;;;;;;31.57;20.17;;;;;;;;;;5022772;28;20190;-67
2023/11/17 10:45:26;;;;;;;30.33;20.00;;;;;;;;;;5024706;28;20197;-67
2023/11/17 10:47:52;;;;;;;30.27;20.33;;;;;;;;;;5014562;28;20194;-67
2023/11/17 10:50:17;;;;;;;28.77;20.50;;;;;;;;;;5027613;28;20189;-68
2023/11/17 10:52:42;;;;;;;27.95;20.83;;;;;;;;;;5024223;28;20674;-67
2023/11/17 10:55:08;;;;;;;27.77;19.60;;;;;;;;;;5027813;28;20194;-68
2023/11/17 10:57:35;;;;;;;28.17;19.07;;;;;;;;;;5047346;28;20220;-67
2023/11/17 11:00:21;;;;;;;28.97;18.90;;;;;;;;;;5035558;28;20186;-67
2023/11/17 11:02:47;;;;;;;28.27;19.13;;;;;;;;;;5020129;28;20190;-67
2023/11/17 11:05:12;;;;;;;26.73;18.60;;;;;;;;;;5028043;28;20197;-67
2023/11/17 11:07:44;;;;;;;25.48;18.80;;;;;;;;;;5025320;28;20632;-67
2023/11/17 11:10:15;;;;;;;30.10;19.80;;;;;;;;;;5021408;28;20398;-67
2023/11/17 11:12:45;;;;;;;27.20;18.93;;;;;;;;;;5019283;28;20226;-67
2023/11/17 11:15:15;;;;;;;28.95;18.33;;;;;;;;;;5030656;28;20218;-67
2023/11/17 11:17:55;;;;;;;26.58;17.60;;;;;;;;;;5025893;28;20348;-67
2023/11/17 11:20:21;;;;;;;27.10;18.13;;;;;;;;;;5016676;28;20190;-68
2023/11/17 11:22:50;;;;;;;26.38;18.20;;;;;;;;;;5026965;28;20617;-68
2023/11/17 11:25:17;;;;;;;28.30;17.85;;;;;;;;;;5025216;28;20241;-68
2023/11/17 11:27:45;;;;;;;28.33;17.98;;;;;;;;;;5023649;28;20186;-68
2023/11/17 11:30:12;;;;;;;22.98;16.92;;;;;;;;;;5012812;28;20488;-68
2023/11/17 11:32:38;;;;;;;28.17;16.35;;;;;;;;;;5021563;28;20700;-68
2023/11/17 11:35:04;;;;;;;28.92;16.08;;;;;;;;;;5018386;28;20193;-68
2023/11/17 11:37:32;;;;;;;23.33;15.75;;;;;;;;;;5023567;28;20649;-68
2023/11/17 11:39:58;;;;;;;25.38;15.75;;;;;;;;;;5020915;28;20541;-68
2023/11/17 11:42:24;;;;;;;24.42;15.95;;;;;;;;;;5012853;28;20619;-68
2023/11/17 11:44:51;;;;;;;21.38;14.68;;;;;;;;;;5010913;28;20194;-70
2023/11/17 11:47:18;;;;;;;20.83;14.18;;;;;;;;;;5028272;28;20227;-67
2023/11/17 11:49:44;;;;;;;21.33;13.95;;;;;;;;;;5031960;28;20185;-68
2023/11/17 11:52:36;;;;;;;20.85;14.15;;;;;;;;;;5019690;28;20219;-68
2023/11/17 11:55:02;;;;;;;23.48;13.38;;;;;;;;;;5018576;28;20348;-68
2023/11/17 11:57:29;;;;;;;21.92;14.65;;;;;;;;;;5028479;28;20274;-68
2023/11/17 12:00:12;;;;;;;22.75;15.43;;;;;;;;;;5012287;28;20665;-68
2023/11/17 12:02:51;;;;;;;21.83;14.55;;;;;;;;;;5021659;28;20650;-68
2023/11/17 12:05:28;;;;;;;19.77;14.25;;;;;;;;;;5022362;28;20324;-67
2023/11/17 12:08:02;;;;;;;20.88;14.13;;;;;;;;;;5024998;28;20210;-67
2023/11/17 12:10:41;;;;;;;20.40;13.82;;;;;;;;;;5027049;28;20230;-69
2023/11/17 12:13:07;;;;;;;23.23;15.13;;;;;;;;;;5040810;28;20216;-67
2023/11/17 12:15:32;;;;;;;22.55;14.88;;;;;;;;;;5033604;28;20214;-67
2023/11/17 12:17:59;;;;;;;23.88;15.25;;;;;;;;;;5029843;28;20680;-67
2023/11/17 12:20:26;;;;;;;24.15;15.18;;;;;;;;;;5016038;28;20658;-67
2023/11/17 12:23:03;;;;;;;24.95;15.27;;;;;;;;;;5028100;28;20694;-67
2023/11/17 12:25:29;;;;;;;24.08;15.80;;;;;;;;;;5030984;28;20215;-67
2023/11/17 12:27:58;;;;;;;21.00;14.37;;;;;;;;;;5042521;28;20189;-68
2023/11/17 12:30:26;;;;;;;21.10;16.13;;;;;;;;;;5040076;28;20197;-67
2023/11/17 12:32:54;;;;;;;24.65;15.02;;;;;;;;;;5043218;28;20205;-67
2023/11/17 12:35:20;;;;;;;23.57;15.57;;;;;;;;;;5029974;28;20201;-67
2023/11/17 12:37:49;;;;;;;20.33;14.90;;;;;;;;;;5025715;28;20276;-67
2023/11/17 12:40:18;;;;;;;23.83;15.30;;;;;;;;;;5025395;28;20527;-67
2023/11/17 12:42:45;;;;;;;21.17;14.65;;;;;;;;;;5023099;28;20555;-67
2023/11/17 12:45:12;;;;;;;19.52;14.65;;;;;;;;;;5018725;28;20555;-68
2023/11/17 12:47:42;;;;;;;22.77;15.00;;;;;;;;;;5038571;28;20208;-67
2023/11/17 12:50:10;;;;;;;25.03;15.47;;;;;;;;;;5027915;28;20190;-67
2023/11/17 12:52:37;;;;;;;24.70;16.80;;;;;;;;;;5038513;28;20297;-68
2023/11/17 12:55:07;;;;;;;23.63;14.88;;;;;;;;;;5042838;28;20224;-68
2023/11/17 12:57:36;;;;;;;24.77;15.47;;;;;;;;;;5012092;28;20566;-67
2023/11/17 13:00:12;;;;;;;25.97;15.60;;;;;;;;;;5033655;28;20196;-67
2023/11/17 13:02:40;;;;;;;21.70;15.77;;;;;;;;;;5022467;28;20188;-67
2023/11/17 13:05:07;;;;;;;24.97;15.53;;;;;;;;;;5019460;28;20194;-67
2023/11/17 13:07:33;;;;;;;27.30;16.75;;;;;;;;;;5020381;28;20183;-67
2023/11/17 13:09:59;;;;;;;21.13;15.93;;;;;;;;;;5029758;28;20605;-67
2023/11/17 13:12:24;;;;;;;23.05;16.92;;;;;;;;;;5036449;28;20264;-67
2023/11/17 13:14:51;;;;;;;28.93;16.93;;;;;;;;;;5016741;28;20283;-67
2023/11/17 13:17:18;;;;;;;27.75;16.25;;;;;;;;;;5031400;28;20194;-67
2023/11/17 13:19:44;;;;;;;21.60;16.37;;;;;;;;;;5025408;28;20205;-66
2023/11/17 13:22:10;;;;;;;25.77;15.73;;;;;;;;;;5031264;28;20182;-67
2023/11/17 13:24:35;;;;;;;23.87;16.37;;;;;;;;;;5032401;28;20454;-67
2023/11/17 13:27:02;;;;;;;21.67;16.00;;;;;;;;;;5021048;28;20198;-66
2023/11/17 13:29:28;;;;;;;28.23;17.47;;;;;;;;;;5027561;28;20278;-66
2023/11/17 13:31:58;;;;;;;29.03;16.67;;;;;;;;;;5027760;28;20276;-66
2023/11/17 13:34:26;;;;;;;27.13;17.33;;;;;;;;;;5029399;28;20191;-67
2023/11/17 13:36:52;;;;;;;24.02;16.50;;;;;;;;;;5028283;28;20206;-67
2023/11/17 13:39:19;;;;;;;25.03;16.13;;;;;;;;;;5029387;28;20277;-67
2023/11/17 13:41:49;;;;;;;26.97;16.73;;;;;;;;;;5029098;28;20241;-67
2023/11/17 13:44:16;;;;;;;25.63;17.05;;;;;;;;;;5036810;28;20277;-68
2023/11/17 13:46:43;;;;;;;25.90;17.60;;;;;;;;;;5022158;28;20191;-67
2023/11/17 13:49:15;;;;;;;23.73;15.43;;;;;;;;;;5026921;28;20308;-68
2023/11/17 13:51:41;;;;;;;26.73;17.20;;;;;;;;;;5024621;28;20218;-67
2023/11/17 13:54:08;;;;;;;25.87;17.90;;;;;;;;;;5026784;28;20247;-67
2023/11/17 13:56:49;;;;;;;26.43;17.93;;;;;;;;;;5028192;28;20194;-67
2023/11/17 13:59:23;;;;;;;24.38;17.98;;;;;;;;;;4331613;28;10000837;-67
2023/11/17 14:01:52;;;;;;;26.20;18.60;;;;;;;;;;5026514;28;20652;-67
2023/11/17 14:04:21;;;;;;;26.93;17.60;;;;;;;;;;5019973;28;20194;-67
2023/11/17 14:06:47;;;;;;;23.83;17.33;;;;;;;;;;5018779;28;20270;-67
2023/11/17 14:09:19;;;;;;;26.50;17.60;;;;;;;;;;5021320;28;20220;-67
2023/11/17 14:11:46;;;;;;;26.40;17.95;;;;;;;;;;5017914;28;20241;-67
2023/11/17 14:14:12;;;;;;;25.50;18.07;;;;;;;;;;5031378;28;20638;-67
2023/11/17 14:16:37;;;;;;;25.30;17.75;;;;;;;;;;5015040;28;20276;-67
2023/11/17 14:19:03;;;;;;;26.07;17.13;;;;;;;;;;5013185;28;20243;-67